sensor_id;sensor_type;location;lat;lon;timestamp;temperature;humidity
2012;DHT22;1009;51.436;6.972;2023-02-26T00:01:11;1.10;99.90
2012;DHT22;1009;51.436;6.972;2023-02-26T00:03:38;1.10;99.90
2012;DHT22;1009;51.436;6.972;2023-02-26T00:06:05;1.10;99.90
2012;DHT22;1009;51.436;6.972;2023-02-26T00:08:32;1.10;99.90
2012;DHT22;1009;51.436;6.972;2023-02-26T00:11:01;1.10;99.90
2012;DHT22;1009;51.436;6.972;2023-02-26T00:13:31;1.10;99.90
2012;DHT22;1009;51.436;6.972;2023-02-26T00:16:00;1.10;99.90
2012;DHT22;1009;51.436;6.972;2023-02-26T00:18:30;1.10;99.90
2012;DHT22;1009;51.436;6.972;2023-02-26T00:20:58;1.10;99.90
2012;DHT22;1009;51.436;6.972;2023-02-26T00:23:25;1.10;99.90
2012;DHT22;1009;51.436;6.972;2023-02-26T00:25:51;1.10;99.90
2012;DHT22;1009;51.436;6.972;2023-02-26T00:28:20;1.10;99.90
2012;DHT22;1009;51.436;6.972;2023-02-26T00:30:47;1.10;99.90
2012;DHT22;1009;51.436;6.972;2023-02-26T00:33:15;1.10;99.90
2012;DHT22;1009;51.436;6.972;2023-02-26T00:35:42;1.20;99.90
2012;DHT22;1009;51.436;6.972;2023-02-26T00:38:10;1.20;99.90
2012;DHT22;1009;51.436;6.972;2023-02-26T00:40:43;1.20;99.90
2012;DHT22;1009;51.436;6.972;2023-02-26T00:43:14;1.30;99.90
2012;DHT22;1009;51.436;6.972;2023-02-26T00:45:46;1.40;99.90
2012;DHT22;1009;51.436;6.972;2023-02-26T00:48:28;1.50;99.90
2012;DHT22;1009;51.436;6.972;2023-02-26T00:51:01;1.60;99.90
2012;DHT22;1009;51.436;6.972;2023-02-26T00:53:34;1.60;99.90
2012;DHT22;1009;51.436;6.972;2023-02-26T00:56:01;1.50;99.90
2012;DHT22;1009;51.436;6.972;2023-02-26T00:58:28;1.50;99.90
2012;DHT22;1009;51.436;6.972;2023-02-26T01:01:05;1.50;99.90
2012;DHT22;1009;51.436;6.972;2023-02-26T01:03:33;1.50;99.90
2012;DHT22;1009;51.436;6.972;2023-02-26T01:06:00;1.40;99.90
2012;DHT22;1009;51.436;6.972;2023-02-26T01:08:35;1.40;99.90
2012;DHT22;1009;51.436;6.972;2023-02-26T01:11:04;1.40;99.90
2012;DHT22;1009;51.436;6.972;2023-02-26T01:13:31;1.50;99.90
2012;DHT22;1009;51.436;6.972;2023-02-26T01:16:01;1.50;99.90
2012;DHT22;1009;51.436;6.972;2023-02-26T01:18:37;1.60;99.90
2012;DHT22;1009;51.436;6.972;2023-02-26T01:21:10;1.50;99.90
2012;DHT22;1009;51.436;6.972;2023-02-26T01:23:40;1.40;99.90
2012;DHT22;1009;51.436;6.972;2023-02-26T01:26:13;1.40;99.90
2012;DHT22;1009;51.436;6.972;2023-02-26T01:28:50;1.40;99.90
2012;DHT22;1009;51.436;6.972;2023-02-26T01:31:33;1.50;99.90
2012;DHT22;1009;51.436;6.972;2023-02-26T01:34:10;1.40;99.90
2012;DHT22;1009;51.436;6.972;2023-02-26T01:36:47;1.40;99.90
2012;DHT22;1009;51.436;6.972;2023-02-26T01:39:23;1.30;99.90
2012;DHT22;1009;51.436;6.972;2023-02-26T01:41:54;1.40;99.90
2012;DHT22;1009;51.436;6.972;2023-02-26T01:44:25;1.30;99.90
2012;DHT22;1009;51.436;6.972;2023-02-26T01:47:08;1.40;99.90
2012;DHT22;1009;51.436;6.972;2023-02-26T01:49:39;1.40;99.90
2012;DHT22;1009;51.436;6.972;2023-02-26T01:54:48;1.40;99.90
2012;DHT22;1009;51.436;6.972;2023-02-26T01:57:17;1.40;99.90
2012;DHT22;1009;51.436;6.972;2023-02-26T01:59:45;1.30;99.90
2012;DHT22;1009;51.436;6.972;2023-02-26T02:02:16;1.30;99.90
2012;DHT22;1009;51.436;6.972;2023-02-26T02:04:46;1.30;99.90
2012;DHT22;1009;51.436;6.972;2023-02-26T02:07:13;1.30;99.90
2012;DHT22;1009;51.436;6.972;2023-02-26T02:09:41;1.20;99.90
2012;DHT22;1009;51.436;6.972;2023-02-26T02:12:17;1.20;99.90
2012;DHT22;1009;51.436;6.972;2023-02-26T02:14:55;1.20;99.90
2012;DHT22;1009;51.436;6.972;2023-02-26T02:17:34;1.20;99.90
2012;DHT22;1009;51.436;6.972;2023-02-26T02:20:26;1.20;99.90
2012;DHT22;1009;51.436;6.972;2023-02-26T02:23:03;1.20;99.90
2012;DHT22;1009;51.436;6.972;2023-02-26T02:26:00;1.10;99.90
2012;DHT22;1009;51.436;6.972;2023-02-26T02:28:39;1.20;99.90
2012;DHT22;1009;51.436;6.972;2023-02-26T02:31:16;1.10;99.90
2012;DHT22;1009;51.436;6.972;2023-02-26T02:33:50;1.10;99.90
2012;DHT22;1009;51.436;6.972;2023-02-26T02:36:26;1.10;99.90
2012;DHT22;1009;51.436;6.972;2023-02-26T02:38:57;1.10;99.90
2012;DHT22;1009;51.436;6.972;2023-02-26T02:41:29;1.20;99.90
2012;DHT22;1009;51.436;6.972;2023-02-26T02:43:59;1.10;99.90
2012;DHT22;1009;51.436;6.972;2023-02-26T02:46:30;1.10;99.90
2012;DHT22;1009;51.436;6.972;2023-02-26T02:49:00;1.10;99.90
2012;DHT22;1009;51.436;6.972;2023-02-26T02:51:29;1.00;99.90
2012;DHT22;1009;51.436;6.972;2023-02-26T02:54:04;1.10;99.90
2012;DHT22;1009;51.436;6.972;2023-02-26T02:56:34;1.00;99.90
2012;DHT22;1009;51.436;6.972;2023-02-26T02:59:11;1.00;99.90
2012;DHT22;1009;51.436;6.972;2023-02-26T03:01:41;1.10;99.90
2012;DHT22;1009;51.436;6.972;2023-02-26T03:04:11;1.00;99.90
2012;DHT22;1009;51.436;6.972;2023-02-26T03:06:39;1.10;99.90
2012;DHT22;1009;51.436;6.972;2023-02-26T03:09:09;1.10;99.90
2012;DHT22;1009;51.436;6.972;2023-02-26T03:11:36;1.10;99.90
2012;DHT22;1009;51.436;6.972;2023-02-26T03:14:03;1.10;99.90
2012;DHT22;1009;51.436;6.972;2023-02-26T03:16:54;1.10;99.90
2012;DHT22;1009;51.436;6.972;2023-02-26T03:19:26;1.10;99.90
2012;DHT22;1009;51.436;6.972;2023-02-26T03:22:00;0.90;99.90
2012;DHT22;1009;51.436;6.972;2023-02-26T03:24:32;0.90;99.90
2012;DHT22;1009;51.436;6.972;2023-02-26T03:27:06;0.90;99.90
2012;DHT22;1009;51.436;6.972;2023-02-26T03:29:47;0.80;99.90
2012;DHT22;1009;51.436;6.972;2023-02-26T03:32:24;0.80;99.90
2012;DHT22;1009;51.436;6.972;2023-02-26T03:34:57;0.80;99.90
2012;DHT22;1009;51.436;6.972;2023-02-26T03:37:30;0.70;99.90
2012;DHT22;1009;51.436;6.972;2023-02-26T03:40:02;0.70;99.90
2012;DHT22;1009;51.436;6.972;2023-02-26T03:42:34;0.70;99.90
2012;DHT22;1009;51.436;6.972;2023-02-26T03:45:06;0.60;99.90
2012;DHT22;1009;51.436;6.972;2023-02-26T03:47:38;0.50;99.90
2012;DHT22;1009;51.436;6.972;2023-02-26T03:50:08;0.50;99.90
2012;DHT22;1009;51.436;6.972;2023-02-26T03:52:38;0.50;99.90
2012;DHT22;1009;51.436;6.972;2023-02-26T03:55:09;0.50;99.90
2012;DHT22;1009;51.436;6.972;2023-02-26T03:57:37;0.40;99.90
2012;DHT22;1009;51.436;6.972;2023-02-26T04:00:05;0.40;99.90
2012;DHT22;1009;51.436;6.972;2023-02-26T04:02:39;0.40;99.90
2012;DHT22;1009;51.436;6.972;2023-02-26T04:05:11;0.40;99.90
2012;DHT22;1009;51.436;6.972;2023-02-26T04:07:40;0.40;99.90
2012;DHT22;1009;51.436;6.972;2023-02-26T04:10:09;0.40;99.90
2012;DHT22;1009;51.436;6.972;2023-02-26T04:12:36;0.30;99.90
2012;DHT22;1009;51.436;6.972;2023-02-26T04:15:03;0.30;99.90
2012;DHT22;1009;51.436;6.972;2023-02-26T04:17:31;0.30;99.90
2012;DHT22;1009;51.436;6.972;2023-02-26T04:19:59;0.30;99.90
2012;DHT22;1009;51.436;6.972;2023-02-26T04:22:26;0.20;99.90
2012;DHT22;1009;51.436;6.972;2023-02-26T04:24:52;0.20;99.90
2012;DHT22;1009;51.436;6.972;2023-02-26T04:27:19;0.30;99.90
2012;DHT22;1009;51.436;6.972;2023-02-26T04:29:46;0.40;99.90
2012;DHT22;1009;51.436;6.972;2023-02-26T04:32:12;0.40;99.90
2012;DHT22;1009;51.436;6.972;2023-02-26T04:34:42;0.30;99.90
2012;DHT22;1009;51.436;6.972;2023-02-26T04:37:10;0.30;99.90
2012;DHT22;1009;51.436;6.972;2023-02-26T04:39:40;0.30;99.90
2012;DHT22;1009;51.436;6.972;2023-02-26T04:42:07;0.20;99.90
2012;DHT22;1009;51.436;6.972;2023-02-26T04:44:34;0.20;99.90
2012;DHT22;1009;51.436;6.972;2023-02-26T04:47:00;0.10;99.90
2012;DHT22;1009;51.436;6.972;2023-02-26T04:49:27;0.20;99.90
2012;DHT22;1009;51.436;6.972;2023-02-26T04:51:54;0.10;99.90
2012;DHT22;1009;51.436;6.972;2023-02-26T04:54:22;0.20;99.90
2012;DHT22;1009;51.436;6.972;2023-02-26T04:56:49;0.10;99.90
2012;DHT22;1009;51.436;6.972;2023-02-26T04:59:15;0.20;99.90
2012;DHT22;1009;51.436;6.972;2023-02-26T05:01:42;0.10;99.90
2012;DHT22;1009;51.436;6.972;2023-02-26T05:04:12;0.10;99.90
2012;DHT22;1009;51.436;6.972;2023-02-26T05:06:38;0.10;99.90
2012;DHT22;1009;51.436;6.972;2023-02-26T05:09:05;0.10;99.90
2012;DHT22;1009;51.436;6.972;2023-02-26T05:11:33;0.10;99.90
2012;DHT22;1009;51.436;6.972;2023-02-26T05:14:00;0.10;99.90
2012;DHT22;1009;51.436;6.972;2023-02-26T05:16:26;0.10;99.90
2012;DHT22;1009;51.436;6.972;2023-02-26T05:18:53;0.10;99.90
2012;DHT22;1009;51.436;6.972;2023-02-26T05:21:20;0.00;99.90
2012;DHT22;1009;51.436;6.972;2023-02-26T05:23:46;0.00;99.90
2012;DHT22;1009;51.436;6.972;2023-02-26T05:26:13;-0.10;99.90
2012;DHT22;1009;51.436;6.972;2023-02-26T05:28:41;-0.10;99.90
2012;DHT22;1009;51.436;6.972;2023-02-26T05:31:10;-0.20;99.90
2012;DHT22;1009;51.436;6.972;2023-02-26T05:33:37;-0.20;99.90
2012;DHT22;1009;51.436;6.972;2023-02-26T05:36:04;-0.10;99.90
2012;DHT22;1009;51.436;6.972;2023-02-26T05:38:32;-0.20;99.90
2012;DHT22;1009;51.436;6.972;2023-02-26T05:40:59;-0.20;99.90
2012;DHT22;1009;51.436;6.972;2023-02-26T05:43:27;-0.30;99.90
2012;DHT22;1009;51.436;6.972;2023-02-26T05:45:55;-0.20;99.90
2012;DHT22;1009;51.436;6.972;2023-02-26T05:48:22;-0.30;99.90
2012;DHT22;1009;51.436;6.972;2023-02-26T05:50:49;-0.30;99.90
2012;DHT22;1009;51.436;6.972;2023-02-26T05:53:16;-0.30;99.90
2012;DHT22;1009;51.436;6.972;2023-02-26T05:55:43;-0.40;99.90
2012;DHT22;1009;51.436;6.972;2023-02-26T05:58:10;-0.40;99.90
2012;DHT22;1009;51.436;6.972;2023-02-26T06:00:37;-0.30;99.90
2012;DHT22;1009;51.436;6.972;2023-02-26T06:03:05;-0.40;99.90
2012;DHT22;1009;51.436;6.972;2023-02-26T06:05:32;-0.40;99.90
2012;DHT22;1009;51.436;6.972;2023-02-26T06:08:00;-0.30;99.90
2012;DHT22;1009;51.436;6.972;2023-02-26T06:10:27;-0.30;99.90
2012;DHT22;1009;51.436;6.972;2023-02-26T06:12:54;-0.30;99.90
2012;DHT22;1009;51.436;6.972;2023-02-26T06:15:21;-0.30;99.90
2012;DHT22;1009;51.436;6.972;2023-02-26T06:17:47;-0.30;99.90
2012;DHT22;1009;51.436;6.972;2023-02-26T06:20:16;-0.40;99.90
2012;DHT22;1009;51.436;6.972;2023-02-26T06:22:42;-0.40;99.90
2012;DHT22;1009;51.436;6.972;2023-02-26T06:25:09;-0.40;99.90
2012;DHT22;1009;51.436;6.972;2023-02-26T06:27:36;-0.40;99.90
2012;DHT22;1009;51.436;6.972;2023-02-26T06:30:03;-0.40;99.90
2012;DHT22;1009;51.436;6.972;2023-02-26T06:32:30;-0.40;99.90
2012;DHT22;1009;51.436;6.972;2023-02-26T06:34:57;-0.30;99.90
2012;DHT22;1009;51.436;6.972;2023-02-26T06:37:25;-0.40;99.90
2012;DHT22;1009;51.436;6.972;2023-02-26T06:39:52;-0.30;99.90
2012;DHT22;1009;51.436;6.972;2023-02-26T06:42:19;-0.30;99.90
2012;DHT22;1009;51.436;6.972;2023-02-26T06:44:46;-0.30;99.90
2012;DHT22;1009;51.436;6.972;2023-02-26T06:47:12;-0.30;99.90
2012;DHT22;1009;51.436;6.972;2023-02-26T06:49:39;-0.30;99.90
2012;DHT22;1009;51.436;6.972;2023-02-26T06:52:06;-0.30;99.90
2012;DHT22;1009;51.436;6.972;2023-02-26T06:54:34;-0.30;99.90
2012;DHT22;1009;51.436;6.972;2023-02-26T06:57:00;-0.20;99.90
2012;DHT22;1009;51.436;6.972;2023-02-26T06:59:27;-0.20;99.90
2012;DHT22;1009;51.436;6.972;2023-02-26T07:01:54;-0.20;99.90
2012;DHT22;1009;51.436;6.972;2023-02-26T07:04:21;-0.30;99.90
2012;DHT22;1009;51.436;6.972;2023-02-26T07:06:48;-0.30;99.90
2012;DHT22;1009;51.436;6.972;2023-02-26T07:09:15;-0.30;99.90
2012;DHT22;1009;51.436;6.972;2023-02-26T07:11:45;-0.30;99.90
2012;DHT22;1009;51.436;6.972;2023-02-26T07:14:12;-0.20;99.90
2012;DHT22;1009;51.436;6.972;2023-02-26T07:16:38;-0.20;99.90
2012;DHT22;1009;51.436;6.972;2023-02-26T07:19:05;-0.20;99.90
2012;DHT22;1009;51.436;6.972;2023-02-26T07:21:32;-0.10;99.90
2012;DHT22;1009;51.436;6.972;2023-02-26T07:23:59;-0.10;99.90
2012;DHT22;1009;51.436;6.972;2023-02-26T07:26:25;-0.10;99.90
2012;DHT22;1009;51.436;6.972;2023-02-26T07:28:53;-0.10;99.90
2012;DHT22;1009;51.436;6.972;2023-02-26T07:31:20;0.00;99.90
2012;DHT22;1009;51.436;6.972;2023-02-26T07:33:47;0.10;99.90
2012;DHT22;1009;51.436;6.972;2023-02-26T07:36:13;0.10;99.90
2012;DHT22;1009;51.436;6.972;2023-02-26T07:38:40;0.20;99.90
2012;DHT22;1009;51.436;6.972;2023-02-26T07:41:07;0.20;99.90
2012;DHT22;1009;51.436;6.972;2023-02-26T07:43:33;0.20;99.90
2012;DHT22;1009;51.436;6.972;2023-02-26T07:46:02;0.30;99.90
2012;DHT22;1009;51.436;6.972;2023-02-26T07:48:29;0.30;99.90
2012;DHT22;1009;51.436;6.972;2023-02-26T07:50:56;0.30;99.90
2012;DHT22;1009;51.436;6.972;2023-02-26T07:53:23;0.40;99.90
2012;DHT22;1009;51.436;6.972;2023-02-26T07:55:50;0.40;99.90
2012;DHT22;1009;51.436;6.972;2023-02-26T07:58:17;0.30;99.90
2012;DHT22;1009;51.436;6.972;2023-02-26T08:00:44;0.30;99.90
2012;DHT22;1009;51.436;6.972;2023-02-26T08:03:12;0.30;99.90
2012;DHT22;1009;51.436;6.972;2023-02-26T08:05:39;0.40;99.90
2012;DHT22;1009;51.436;6.972;2023-02-26T08:08:06;0.40;99.90
2012;DHT22;1009;51.436;6.972;2023-02-26T08:10:33;0.50;99.90
2012;DHT22;1009;51.436;6.972;2023-02-26T08:12:59;0.60;99.90
2012;DHT22;1009;51.436;6.972;2023-02-26T08:15:26;0.70;99.90
2012;DHT22;1009;51.436;6.972;2023-02-26T08:17:53;0.80;99.90
2012;DHT22;1009;51.436;6.972;2023-02-26T08:20:22;0.80;99.90
2012;DHT22;1009;51.436;6.972;2023-02-26T08:22:49;0.90;99.90
2012;DHT22;1009;51.436;6.972;2023-02-26T08:25:16;0.90;99.90
2012;DHT22;1009;51.436;6.972;2023-02-26T08:27:43;1.00;99.90
2012;DHT22;1009;51.436;6.972;2023-02-26T08:30:11;1.00;99.90
2012;DHT22;1009;51.436;6.972;2023-02-26T08:32:38;1.00;99.90
2012;DHT22;1009;51.436;6.972;2023-02-26T08:35:07;1.10;99.90
2012;DHT22;1009;51.436;6.972;2023-02-26T08:37:35;1.30;99.90
2012;DHT22;1009;51.436;6.972;2023-02-26T08:40:03;1.30;99.90
2012;DHT22;1009;51.436;6.972;2023-02-26T08:42:30;1.20;99.90
2012;DHT22;1009;51.436;6.972;2023-02-26T08:44:57;1.30;99.90
2012;DHT22;1009;51.436;6.972;2023-02-26T08:47:23;1.40;99.90
2012;DHT22;1009;51.436;6.972;2023-02-26T08:49:50;1.40;99.90
2012;DHT22;1009;51.436;6.972;2023-02-26T08:52:17;1.50;99.90
2012;DHT22;1009;51.436;6.972;2023-02-26T08:54:46;1.50;99.90
2012;DHT22;1009;51.436;6.972;2023-02-26T08:57:12;1.60;99.90
2012;DHT22;1009;51.436;6.972;2023-02-26T08:59:39;1.60;99.90
2012;DHT22;1009;51.436;6.972;2023-02-26T09:02:06;1.60;99.90
2012;DHT22;1009;51.436;6.972;2023-02-26T09:04:35;1.50;99.90
2012;DHT22;1009;51.436;6.972;2023-02-26T09:07:02;1.60;99.90
2012;DHT22;1009;51.436;6.972;2023-02-26T09:09:29;1.70;99.90
2012;DHT22;1009;51.436;6.972;2023-02-26T09:11:58;1.80;99.90
2012;DHT22;1009;51.436;6.972;2023-02-26T09:14:25;1.90;99.90
2012;DHT22;1009;51.436;6.972;2023-02-26T09:16:53;2.10;99.90
2012;DHT22;1009;51.436;6.972;2023-02-26T09:19:20;2.30;99.90
2012;DHT22;1009;51.436;6.972;2023-02-26T09:21:46;2.30;99.90
2012;DHT22;1009;51.436;6.972;2023-02-26T09:24:13;2.30;99.90
2012;DHT22;1009;51.436;6.972;2023-02-26T09:26:40;2.40;99.90
2012;DHT22;1009;51.436;6.972;2023-02-26T09:29:08;2.50;99.90
2012;DHT22;1009;51.436;6.972;2023-02-26T09:31:35;2.60;99.90
2012;DHT22;1009;51.436;6.972;2023-02-26T09:34:02;2.70;99.90
2012;DHT22;1009;51.436;6.972;2023-02-26T09:36:30;2.80;99.90
2012;DHT22;1009;51.436;6.972;2023-02-26T09:38:57;3.00;99.90
2012;DHT22;1009;51.436;6.972;2023-02-26T09:41:26;3.20;99.90
2012;DHT22;1009;51.436;6.972;2023-02-26T09:44:09;3.10;99.90
2012;DHT22;1009;51.436;6.972;2023-02-26T09:46:44;3.10;99.90
2012;DHT22;1009;51.436;6.972;2023-02-26T09:49:20;3.20;99.90
2012;DHT22;1009;51.436;6.972;2023-02-26T09:51:50;3.20;99.90
2012;DHT22;1009;51.436;6.972;2023-02-26T09:54:20;3.30;99.90
2012;DHT22;1009;51.436;6.972;2023-02-26T09:56:49;3.50;99.90
2012;DHT22;1009;51.436;6.972;2023-02-26T09:59:18;3.40;99.90
2012;DHT22;1009;51.436;6.972;2023-02-26T10:01:50;3.40;99.90
2012;DHT22;1009;51.436;6.972;2023-02-26T10:04:25;3.50;99.90
2012;DHT22;1009;51.436;6.972;2023-02-26T10:07:05;3.50;99.90
2012;DHT22;1009;51.436;6.972;2023-02-26T10:09:43;3.40;99.90
2012;DHT22;1009;51.436;6.972;2023-02-26T10:12:14;3.20;99.90
2012;DHT22;1009;51.436;6.972;2023-02-26T10:14:48;3.10;99.90
2012;DHT22;1009;51.436;6.972;2023-02-26T10:17:20;3.30;99.90
2012;DHT22;1009;51.436;6.972;2023-02-26T10:19:50;3.40;99.90
2012;DHT22;1009;51.436;6.972;2023-02-26T10:22:23;3.50;99.90
2012;DHT22;1009;51.436;6.972;2023-02-26T10:25:02;3.50;99.90
2012;DHT22;1009;51.436;6.972;2023-02-26T10:27:42;3.40;99.90
2012;DHT22;1009;51.436;6.972;2023-02-26T10:30:16;3.50;99.90
2012;DHT22;1009;51.436;6.972;2023-02-26T10:32:56;3.50;99.90
2012;DHT22;1009;51.436;6.972;2023-02-26T10:35:26;3.50;99.90
2012;DHT22;1009;51.436;6.972;2023-02-26T10:37:56;3.70;99.90
2012;DHT22;1009;51.436;6.972;2023-02-26T10:40:27;4.00;99.90
2012;DHT22;1009;51.436;6.972;2023-02-26T10:42:58;4.20;99.90
2012;DHT22;1009;51.436;6.972;2023-02-26T10:45:36;4.30;99.90
2012;DHT22;1009;51.436;6.972;2023-02-26T10:48:17;4.20;99.90
2012;DHT22;1009;51.436;6.972;2023-02-26T10:50:49;3.90;99.90
2012;DHT22;1009;51.436;6.972;2023-02-26T10:53:17;4.00;99.90
2012;DHT22;1009;51.436;6.972;2023-02-26T10:55:46;4.10;99.90
2012;DHT22;1009;51.436;6.972;2023-02-26T10:58:15;4.40;99.90
2012;DHT22;1009;51.436;6.972;2023-02-26T11:00:45;4.40;99.50
2012;DHT22;1009;51.436;6.972;2023-02-26T11:03:16;4.30;99.90
2012;DHT22;1009;51.436;6.972;2023-02-26T11:05:45;4.40;99.90
2012;DHT22;1009;51.436;6.972;2023-02-26T11:08:17;4.70;99.90
2012;DHT22;1009;51.436;6.972;2023-02-26T11:10:50;4.40;95.10
2012;DHT22;1009;51.436;6.972;2023-02-26T11:13:17;4.10;94.80
2012;DHT22;1009;51.436;6.972;2023-02-26T11:15:47;4.10;95.70
2012;DHT22;1009;51.436;6.972;2023-02-26T11:18:19;3.90;94.90
2012;DHT22;1009;51.436;6.972;2023-02-26T11:20:48;3.90;95.40
2012;DHT22;1009;51.436;6.972;2023-02-26T11:23:19;4.30;98.20
2012;DHT22;1009;51.436;6.972;2023-02-26T11:25:52;4.40;96.40
2012;DHT22;1009;51.436;6.972;2023-02-26T11:28:22;4.30;92.40
2012;DHT22;1009;51.436;6.972;2023-02-26T11:30:51;4.40;93.20
2012;DHT22;1009;51.436;6.972;2023-02-26T11:33:22;4.60;94.40
2012;DHT22;1009;51.436;6.972;2023-02-26T11:35:50;5.00;93.40
2012;DHT22;1009;51.436;6.972;2023-02-26T11:38:19;5.10;92.10
2012;DHT22;1009;51.436;6.972;2023-02-26T11:40:49;5.20;91.70
2012;DHT22;1009;51.436;6.972;2023-02-26T11:43:19;4.80;82.80
2012;DHT22;1009;51.436;6.972;2023-02-26T11:45:49;4.50;85.50
2012;DHT22;1009;51.436;6.972;2023-02-26T11:48:22;4.70;87.50
2012;DHT22;1009;51.436;6.972;2023-02-26T11:50:53;4.80;86.90
2012;DHT22;1009;51.436;6.972;2023-02-26T11:53:25;4.80;85.30
2012;DHT22;1009;51.436;6.972;2023-02-26T11:55:59;5.00;87.00
2012;DHT22;1009;51.436;6.972;2023-02-26T11:58:29;5.20;87.90
2012;DHT22;1009;51.436;6.972;2023-02-26T12:00:58;5.40;83.60
2012;DHT22;1009;51.436;6.972;2023-02-26T12:03:31;5.70;82.70
2012;DHT22;1009;51.436;6.972;2023-02-26T12:05:58;6.00;84.50
2012;DHT22;1009;51.436;6.972;2023-02-26T12:08:30;5.70;79.70
2012;DHT22;1009;51.436;6.972;2023-02-26T12:11:24;5.30;78.70
2012;DHT22;1009;51.436;6.972;2023-02-26T12:14:06;5.30;78.10
2012;DHT22;1009;51.436;6.972;2023-02-26T12:16:38;5.20;79.20
2012;DHT22;1009;51.436;6.972;2023-02-26T12:19:15;5.50;83.10
2012;DHT22;1009;51.436;6.972;2023-02-26T12:22:08;5.60;81.50
2012;DHT22;1009;51.436;6.972;2023-02-26T12:27:46;5.50;83.10
2012;DHT22;1009;51.436;6.972;2023-02-26T12:30:34;5.70;81.60
2012;DHT22;1009;51.436;6.972;2023-02-26T12:33:17;5.20;77.50
2012;DHT22;1009;51.436;6.972;2023-02-26T12:36:16;4.90;78.90
2012;DHT22;1009;51.436;6.972;2023-02-26T12:38:49;5.20;85.10
2012;DHT22;1009;51.436;6.972;2023-02-26T12:41:28;5.50;85.40
2012;DHT22;1009;51.436;6.972;2023-02-26T12:44:01;5.80;83.50
2012;DHT22;1009;51.436;6.972;2023-02-26T12:46:53;5.60;80.10
2012;DHT22;1009;51.436;6.972;2023-02-26T12:52:36;6.20;82.00
2012;DHT22;1009;51.436;6.972;2023-02-26T12:55:15;6.50;80.30
2012;DHT22;1009;51.436;6.972;2023-02-26T12:57:53;6.10;75.70
2012;DHT22;1009;51.436;6.972;2023-02-26T13:00:36;5.70;74.50
2012;DHT22;1009;51.436;6.972;2023-02-26T13:03:38;6.00;77.60
2012;DHT22;1009;51.436;6.972;2023-02-26T13:06:48;6.30;79.10
2012;DHT22;1009;51.436;6.972;2023-02-26T13:09:26;6.10;72.90
2012;DHT22;1009;51.436;6.972;2023-02-26T13:12:02;6.00;72.40
2012;DHT22;1009;51.436;6.972;2023-02-26T13:14:43;5.60;72.60
2012;DHT22;1009;51.436;6.972;2023-02-26T13:17:20;5.50;74.00
2012;DHT22;1009;51.436;6.972;2023-02-26T13:19:52;6.00;75.40
2012;DHT22;1009;51.436;6.972;2023-02-26T13:22:24;6.40;74.90
2012;DHT22;1009;51.436;6.972;2023-02-26T13:24:57;6.20;71.80
2012;DHT22;1009;51.436;6.972;2023-02-26T13:27:31;6.00;72.00
2012;DHT22;1009;51.436;6.972;2023-02-26T13:30:09;6.20;79.00
2012;DHT22;1009;51.436;6.972;2023-02-26T13:32:41;6.80;79.60
2012;DHT22;1009;51.436;6.972;2023-02-26T13:35:18;7.20;74.10
2012;DHT22;1009;51.436;6.972;2023-02-26T13:37:48;6.80;69.20
2012;DHT22;1009;51.436;6.972;2023-02-26T13:40:40;6.20;69.00
2012;DHT22;1009;51.436;6.972;2023-02-26T13:43:20;6.30;70.00
2012;DHT22;1009;51.436;6.972;2023-02-26T13:46:03;6.00;68.40
2012;DHT22;1009;51.436;6.972;2023-02-26T13:48:41;5.80;68.90
2012;DHT22;1009;51.436;6.972;2023-02-26T13:51:13;6.10;69.20
2012;DHT22;1009;51.436;6.972;2023-02-26T13:53:50;6.10;68.80
2012;DHT22;1009;51.436;6.972;2023-02-26T13:56:22;6.00;68.50
2012;DHT22;1009;51.436;6.972;2023-02-26T13:58:52;5.90;68.40
2012;DHT22;1009;51.436;6.972;2023-02-26T14:01:33;5.90;68.20
2012;DHT22;1009;51.436;6.972;2023-02-26T14:04:22;6.00;69.40
2012;DHT22;1009;51.436;6.972;2023-02-26T14:06:51;6.30;69.10
2012;DHT22;1009;51.436;6.972;2023-02-26T14:09:45;6.60;69.80
2012;DHT22;1009;51.436;6.972;2023-02-26T14:12:41;6.60;66.00
2012;DHT22;1009;51.436;6.972;2023-02-26T14:15:37;6.40;67.20
2012;DHT22;1009;51.436;6.972;2023-02-26T14:18:17;6.70;69.00
2012;DHT22;1009;51.436;6.972;2023-02-26T14:20:46;7.30;69.10
2012;DHT22;1009;51.436;6.972;2023-02-26T14:23:35;7.60;68.30
2012;DHT22;1009;51.436;6.972;2023-02-26T14:26:11;7.80;66.80
2012;DHT22;1009;51.436;6.972;2023-02-26T14:28:43;7.40;64.80
2012;DHT22;1009;51.436;6.972;2023-02-26T14:31:16;6.20;64.10
2012;DHT22;1009;51.436;6.972;2023-02-26T14:33:46;5.50;66.40
2012;DHT22;1009;51.436;6.972;2023-02-26T14:36:19;5.00;67.20
2012;DHT22;1009;51.436;6.972;2023-02-26T14:38:47;5.20;69.90
2012;DHT22;1009;51.436;6.972;2023-02-26T14:41:24;5.70;70.30
2012;DHT22;1009;51.436;6.972;2023-02-26T14:43:58;5.90;69.10
2012;DHT22;1009;51.436;6.972;2023-02-26T14:46:31;5.90;69.20
2012;DHT22;1009;51.436;6.972;2023-02-26T14:48:59;5.70;67.90
2012;DHT22;1009;51.436;6.972;2023-02-26T14:51:33;5.70;70.10
2012;DHT22;1009;51.436;6.972;2023-02-26T14:54:44;5.40;69.20
2012;DHT22;1009;51.436;6.972;2023-02-26T14:57:21;5.30;70.40
2012;DHT22;1009;51.436;6.972;2023-02-26T15:00:02;5.20;69.90
2012;DHT22;1009;51.436;6.972;2023-02-26T15:02:44;5.10;70.60
2012;DHT22;1009;51.436;6.972;2023-02-26T15:05:39;5.30;72.30
2012;DHT22;1009;51.436;6.972;2023-02-26T15:08:19;5.20;72.00
2012;DHT22;1009;51.436;6.972;2023-02-26T15:11:02;5.40;72.70
2012;DHT22;1009;51.436;6.972;2023-02-26T15:13:51;5.20;70.20
2012;DHT22;1009;51.436;6.972;2023-02-26T15:16:27;5.10;69.00
2012;DHT22;1009;51.436;6.972;2023-02-26T15:19:11;5.30;69.30
2012;DHT22;1009;51.436;6.972;2023-02-26T15:21:46;5.90;69.70
2012;DHT22;1009;51.436;6.972;2023-02-26T15:24:17;6.10;69.90
2012;DHT22;1009;51.436;6.972;2023-02-26T15:26:48;6.50;71.40
2012;DHT22;1009;51.436;6.972;2023-02-26T15:29:15;6.50;70.60
2012;DHT22;1009;51.436;6.972;2023-02-26T15:31:51;6.10;70.00
2012;DHT22;1009;51.436;6.972;2023-02-26T15:34:19;6.00;72.60
2012;DHT22;1009;51.436;6.972;2023-02-26T15:36:50;6.30;73.90
2012;DHT22;1009;51.436;6.972;2023-02-26T15:39:18;6.50;71.90
2012;DHT22;1009;51.436;6.972;2023-02-26T15:41:46;5.90;70.50
2012;DHT22;1009;51.436;6.972;2023-02-26T15:44:16;5.20;70.30
2012;DHT22;1009;51.436;6.972;2023-02-26T15:46:47;5.00;71.90
2012;DHT22;1009;51.436;6.972;2023-02-26T15:49:23;4.90;72.70
2012;DHT22;1009;51.436;6.972;2023-02-26T15:51:51;4.80;72.90
2012;DHT22;1009;51.436;6.972;2023-02-26T15:54:20;4.70;73.50
2012;DHT22;1009;51.436;6.972;2023-02-26T15:56:48;4.60;74.30
2012;DHT22;1009;51.436;6.972;2023-02-26T15:59:17;4.50;74.00
2012;DHT22;1009;51.436;6.972;2023-02-26T16:01:47;4.40;73.80
2012;DHT22;1009;51.436;6.972;2023-02-26T16:04:17;4.40;74.50
2012;DHT22;1009;51.436;6.972;2023-02-26T16:06:46;4.30;75.10
2012;DHT22;1009;51.436;6.972;2023-02-26T16:09:20;4.30;75.80
2012;DHT22;1009;51.436;6.972;2023-02-26T16:11:52;4.30;76.20
2012;DHT22;1009;51.436;6.972;2023-02-26T16:14:23;4.30;76.30
2012;DHT22;1009;51.436;6.972;2023-02-26T16:16:53;4.40;77.10
2012;DHT22;1009;51.436;6.972;2023-02-26T16:19:31;4.40;77.20
2012;DHT22;1009;51.436;6.972;2023-02-26T16:22:01;4.40;79.40
2012;DHT22;1009;51.436;6.972;2023-02-26T16:24:30;4.40;77.50
2012;DHT22;1009;51.436;6.972;2023-02-26T16:27:01;4.30;77.00
2012;DHT22;1009;51.436;6.972;2023-02-26T16:29:32;4.20;77.70
2012;DHT22;1009;51.436;6.972;2023-02-26T16:32:03;4.30;78.50
2012;DHT22;1009;51.436;6.972;2023-02-26T16:34:35;4.30;78.10
2012;DHT22;1009;51.436;6.972;2023-02-26T16:37:19;4.30;79.00
2012;DHT22;1009;51.436;6.972;2023-02-26T16:39:52;4.20;78.00
2012;DHT22;1009;51.436;6.972;2023-02-26T16:42:21;4.10;79.00
2012;DHT22;1009;51.436;6.972;2023-02-26T16:45:02;4.10;78.90
2012;DHT22;1009;51.436;6.972;2023-02-26T16:47:47;4.00;79.00
2012;DHT22;1009;51.436;6.972;2023-02-26T16:50:17;4.00;78.50
2012;DHT22;1009;51.436;6.972;2023-02-26T16:52:47;4.00;78.90